sensor_id;sensor_type;location;lat;lon;timestamp;P1;durP1;ratioP1;P2;durP2;ratioP2
7519;SDS011;3801;48.876;10.184;2022-08-24T00:02:34;2.27;;;1.70;;
7519;SDS011;3801;48.876;10.184;2022-08-24T00:07:38;2.47;;;1.80;;
7519;SDS011;3801;48.876;10.184;2022-08-24T00:12:43;2.20;;;1.63;;
7519;SDS011;3801;48.876;10.184;2022-08-24T00:17:46;2.27;;;1.90;;
7519;SDS011;3801;48.876;10.184;2022-08-24T00:22:50;2.47;;;1.87;;
7519;SDS011;3801;48.876;10.184;2022-08-24T00:27:54;1.60;;;1.50;;
7519;SDS011;3801;48.876;10.184;2022-08-24T00:32:58;2.23;;;1.83;;
7519;SDS011;3801;48.876;10.184;2022-08-24T00:38:02;4.93;;;1.83;;
7519;SDS011;3801;48.876;10.184;2022-08-24T00:43:07;3.10;;;1.93;;
7519;SDS011;3801;48.876;10.184;2022-08-24T00:48:12;2.57;;;1.87;;
7519;SDS011;3801;48.876;10.184;2022-08-24T00:53:19;2.73;;;2.27;;
7519;SDS011;3801;48.876;10.184;2022-08-24T00:58:27;2.17;;;1.97;;
7519;SDS011;3801;48.876;10.184;2022-08-24T01:03:32;2.50;;;2.03;;
7519;SDS011;3801;48.876;10.184;2022-08-24T01:08:36;3.37;;;2.00;;
7519;SDS011;3801;48.876;10.184;2022-08-24T01:13:42;2.37;;;2.17;;
7519;SDS011;3801;48.876;10.184;2022-08-24T01:18:46;2.07;;;1.93;;
7519;SDS011;3801;48.876;10.184;2022-08-24T01:23:56;5.70;;;2.10;;
7519;SDS011;3801;48.876;10.184;2022-08-24T01:29:02;2.40;;;2.20;;
7519;SDS011;3801;48.876;10.184;2022-08-24T01:34:07;3.47;;;2.53;;
7519;SDS011;3801;48.876;10.184;2022-08-24T01:39:12;2.30;;;2.10;;
7519;SDS011;3801;48.876;10.184;2022-08-24T01:44:16;3.43;;;2.30;;
7519;SDS011;3801;48.876;10.184;2022-08-24T01:49:22;3.83;;;2.57;;
7519;SDS011;3801;48.876;10.184;2022-08-24T01:54:26;2.37;;;2.17;;
7519;SDS011;3801;48.876;10.184;2022-08-24T01:59:32;2.97;;;2.50;;
7519;SDS011;3801;48.876;10.184;2022-08-24T02:04:35;2.67;;;2.47;;
7519;SDS011;3801;48.876;10.184;2022-08-24T02:09:41;2.67;;;2.40;;
7519;SDS011;3801;48.876;10.184;2022-08-24T02:14:44;3.80;;;2.40;;
7519;SDS011;3801;48.876;10.184;2022-08-24T02:19:48;3.53;;;2.30;;
7519;SDS011;3801;48.876;10.184;2022-08-24T02:24:54;3.17;;;2.70;;
7519;SDS011;3801;48.876;10.184;2022-08-24T02:29:58;3.07;;;2.63;;
7519;SDS011;3801;48.876;10.184;2022-08-24T02:35:01;3.33;;;2.80;;
7519;SDS011;3801;48.876;10.184;2022-08-24T02:40:07;2.63;;;2.43;;
7519;SDS011;3801;48.876;10.184;2022-08-24T02:45:12;3.43;;;2.30;;
7519;SDS011;3801;48.876;10.184;2022-08-24T02:50:23;3.47;;;2.53;;
7519;SDS011;3801;48.876;10.184;2022-08-24T02:55:28;3.60;;;3.03;;
7519;SDS011;3801;48.876;10.184;2022-08-24T03:00:32;3.80;;;2.73;;
7519;SDS011;3801;48.876;10.184;2022-08-24T03:05:37;2.83;;;2.60;;
7519;SDS011;3801;48.876;10.184;2022-08-24T03:10:42;3.30;;;3.00;;
7519;SDS011;3801;48.876;10.184;2022-08-24T03:15:46;3.00;;;2.70;;
7519;SDS011;3801;48.876;10.184;2022-08-24T03:20:50;3.77;;;2.73;;
7519;SDS011;3801;48.876;10.184;2022-08-24T03:25:55;3.97;;;3.13;;
7519;SDS011;3801;48.876;10.184;2022-08-24T03:30:59;3.10;;;2.80;;
7519;SDS011;3801;48.876;10.184;2022-08-24T03:36:03;4.33;;;2.60;;
7519;SDS011;3801;48.876;10.184;2022-08-24T03:41:08;3.00;;;2.70;;
7519;SDS011;3801;48.876;10.184;2022-08-24T03:46:11;4.83;;;3.30;;
7519;SDS011;3801;48.876;10.184;2022-08-24T03:51:17;3.67;;;3.00;;
7519;SDS011;3801;48.876;10.184;2022-08-24T03:56:24;4.60;;;3.23;;
7519;SDS011;3801;48.876;10.184;2022-08-24T04:01:27;3.67;;;3.20;;
7519;SDS011;3801;48.876;10.184;2022-08-24T04:06:32;3.17;;;2.87;;
7519;SDS011;3801;48.876;10.184;2022-08-24T04:11:37;5.70;;;3.20;;
7519;SDS011;3801;48.876;10.184;2022-08-24T04:16:43;3.20;;;2.90;;
7519;SDS011;3801;48.876;10.184;2022-08-24T04:22:00;3.57;;;2.90;;
7519;SDS011;3801;48.876;10.184;2022-08-24T04:27:05;3.33;;;2.70;;
7519;SDS011;3801;48.876;10.184;2022-08-24T04:32:08;3.50;;;2.93;;
7519;SDS011;3801;48.876;10.184;2022-08-24T04:37:12;2.87;;;2.60;;
7519;SDS011;3801;48.876;10.184;2022-08-24T04:42:18;3.20;;;2.73;;
7519;SDS011;3801;48.876;10.184;2022-08-24T04:47:21;3.27;;;2.60;;
7519;SDS011;3801;48.876;10.184;2022-08-24T04:52:25;3.40;;;3.10;;
7519;SDS011;3801;48.876;10.184;2022-08-24T04:57:30;4.40;;;3.70;;
7519;SDS011;3801;48.876;10.184;2022-08-24T05:02:35;6.40;;;3.53;;
7519;SDS011;3801;48.876;10.184;2022-08-24T05:07:46;4.23;;;3.43;;
7519;SDS011;3801;48.876;10.184;2022-08-24T05:12:57;3.77;;;3.03;;
7519;SDS011;3801;48.876;10.184;2022-08-24T05:18:00;5.57;;;3.87;;
7519;SDS011;3801;48.876;10.184;2022-08-24T05:23:04;7.23;;;3.87;;
7519;SDS011;3801;48.876;10.184;2022-08-24T05:28:10;4.80;;;3.57;;
7519;SDS011;3801;48.876;10.184;2022-08-24T05:33:13;5.50;;;3.30;;
7519;SDS011;3801;48.876;10.184;2022-08-24T05:38:17;4.97;;;3.60;;
7519;SDS011;3801;48.876;10.184;2022-08-24T05:43:22;6.40;;;3.23;;
7519;SDS011;3801;48.876;10.184;2022-08-24T05:48:25;5.03;;;3.33;;
7519;SDS011;3801;48.876;10.184;2022-08-24T05:53:41;3.83;;;3.43;;
7519;SDS011;3801;48.876;10.184;2022-08-24T05:58:47;6.03;;;3.70;;
7519;SDS011;3801;48.876;10.184;2022-08-24T06:03:51;11.03;;;4.43;;
7519;SDS011;3801;48.876;10.184;2022-08-24T06:08:56;5.73;;;4.03;;
7519;SDS011;3801;48.876;10.184;2022-08-24T06:14:02;7.47;;;4.77;;
7519;SDS011;3801;48.876;10.184;2022-08-24T06:19:12;5.23;;;4.43;;
7519;SDS011;3801;48.876;10.184;2022-08-24T06:24:16;6.30;;;4.37;;
7519;SDS011;3801;48.876;10.184;2022-08-24T06:29:22;8.70;;;4.50;;
7519;SDS011;3801;48.876;10.184;2022-08-24T06:34:30;5.60;;;4.67;;
7519;SDS011;3801;48.876;10.184;2022-08-24T06:39:34;6.57;;;4.50;;
7519;SDS011;3801;48.876;10.184;2022-08-24T06:44:39;8.57;;;4.20;;
7519;SDS011;3801;48.876;10.184;2022-08-24T06:49:52;4.17;;;3.77;;
7519;SDS011;3801;48.876;10.184;2022-08-24T06:54:55;4.73;;;4.00;;
7519;SDS011;3801;48.876;10.184;2022-08-24T07:00:00;11.47;;;3.90;;
7519;SDS011;3801;48.876;10.184;2022-08-24T07:05:05;6.37;;;4.10;;
7519;SDS011;3801;48.876;10.184;2022-08-24T07:10:41;4.43;;;3.77;;
7519;SDS011;3801;48.876;10.184;2022-08-24T07:15:46;5.03;;;3.60;;
7519;SDS011;3801;48.876;10.184;2022-08-24T07:20:50;4.37;;;3.97;;
7519;SDS011;3801;48.876;10.184;2022-08-24T07:26:15;6.67;;;4.10;;
7519;SDS011;3801;48.876;10.184;2022-08-24T07:31:24;6.33;;;4.10;;
7519;SDS011;3801;48.876;10.184;2022-08-24T07:36:40;5.13;;;4.17;;
7519;SDS011;3801;48.876;10.184;2022-08-24T07:41:46;6.30;;;3.97;;
7519;SDS011;3801;48.876;10.184;2022-08-24T07:47:11;4.60;;;3.63;;
7519;SDS011;3801;48.876;10.184;2022-08-24T07:52:36;3.40;;;2.97;;
7519;SDS011;3801;48.876;10.184;2022-08-24T07:57:40;3.38;;;2.92;;
7519;SDS011;3801;48.876;10.184;2022-08-24T08:02:48;3.78;;;3.10;;
7519;SDS011;3801;48.876;10.184;2022-08-24T08:07:52;3.95;;;3.30;;
7519;SDS011;3801;48.876;10.184;2022-08-24T08:12:56;3.00;;;2.70;;
7519;SDS011;3801;48.876;10.184;2022-08-24T08:18:01;3.90;;;2.90;;
7519;SDS011;3801;48.876;10.184;2022-08-24T08:23:07;3.50;;;2.55;;
7519;SDS011;3801;48.876;10.184;2022-08-24T08:28:41;3.00;;;2.70;;
7519;SDS011;3801;48.876;10.184;2022-08-24T08:33:46;2.70;;;2.20;;
7519;SDS011;3801;48.876;10.184;2022-08-24T08:38:51;4.20;;;2.10;;
7519;SDS011;3801;48.876;10.184;2022-08-24T08:43:56;2.35;;;2.13;;
7519;SDS011;3801;48.876;10.184;2022-08-24T08:49:07;4.63;;;2.30;;
7519;SDS011;3801;48.876;10.184;2022-08-24T08:54:35;3.67;;;2.17;;
7519;SDS011;3801;48.876;10.184;2022-08-24T08:59:50;2.30;;;1.92;;
7519;SDS011;3801;48.876;10.184;2022-08-24T09:05:19;2.45;;;2.20;;
7519;SDS011;3801;48.876;10.184;2022-08-24T09:10:32;2.55;;;2.20;;
7519;SDS011;3801;48.876;10.184;2022-08-24T09:15:49;3.95;;;2.10;;
7519;SDS011;3801;48.876;10.184;2022-08-24T09:21:07;2.83;;;2.10;;
7519;SDS011;3801;48.876;10.184;2022-08-24T09:26:17;2.60;;;2.40;;
7519;SDS011;3801;48.876;10.184;2022-08-24T09:31:29;3.10;;;2.30;;
7519;SDS011;3801;48.876;10.184;2022-08-24T09:36:43;3.28;;;2.40;;
7519;SDS011;3801;48.876;10.184;2022-08-24T09:41:53;2.30;;;2.00;;
7519;SDS011;3801;48.876;10.184;2022-08-24T09:52:39;2.50;;;2.05;;
7519;SDS011;3801;48.876;10.184;2022-08-24T09:57:55;4.95;;;2.38;;
7519;SDS011;3801;48.876;10.184;2022-08-24T10:08:46;2.88;;;2.63;;
7519;SDS011;3801;48.876;10.184;2022-08-24T10:13:56;5.13;;;2.83;;
7519;SDS011;3801;48.876;10.184;2022-08-24T10:19:06;3.65;;;2.50;;
7519;SDS011;3801;48.876;10.184;2022-08-24T10:24:18;3.75;;;2.72;;
7519;SDS011;3801;48.876;10.184;2022-08-24T10:29:32;3.60;;;2.95;;
7519;SDS011;3801;48.876;10.184;2022-08-24T10:34:45;2.90;;;2.50;;
7519;SDS011;3801;48.876;10.184;2022-08-24T10:40:03;3.22;;;2.80;;
7519;SDS011;3801;48.876;10.184;2022-08-24T10:45:16;3.30;;;3.00;;
7519;SDS011;3801;48.876;10.184;2022-08-24T10:50:32;4.05;;;3.17;;
7519;SDS011;3801;48.876;10.184;2022-08-24T10:55:40;3.60;;;2.50;;
7519;SDS011;3801;48.876;10.184;2022-08-24T11:00:44;2.47;;;2.25;;
7519;SDS011;3801;48.876;10.184;2022-08-24T11:05:48;4.75;;;2.90;;
7519;SDS011;3801;48.876;10.184;2022-08-24T11:11:03;2.88;;;2.58;;
7519;SDS011;3801;48.876;10.184;2022-08-24T11:16:07;3.30;;;2.72;;
7519;SDS011;3801;48.876;10.184;2022-08-24T11:21:11;2.70;;;2.22;;
7519;SDS011;3801;48.876;10.184;2022-08-24T11:26:22;2.80;;;2.55;;
7519;SDS011;3801;48.876;10.184;2022-08-24T11:31:28;3.35;;;2.50;;
7519;SDS011;3801;48.876;10.184;2022-08-24T11:36:37;2.70;;;2.20;;
7519;SDS011;3801;48.876;10.184;2022-08-24T11:41:45;3.90;;;2.60;;
7519;SDS011;3801;48.876;10.184;2022-08-24T11:46:50;2.30;;;2.03;;
7519;SDS011;3801;48.876;10.184;2022-08-24T11:51:56;2.10;;;1.90;;
7519;SDS011;3801;48.876;10.184;2022-08-24T11:57:04;5.30;;;2.30;;
7519;SDS011;3801;48.876;10.184;2022-08-24T12:02:10;2.03;;;1.92;;
7519;SDS011;3801;48.876;10.184;2022-08-24T12:07:20;2.20;;;2.00;;
7519;SDS011;3801;48.876;10.184;2022-08-24T12:12:30;2.33;;;2.13;;
7519;SDS011;3801;48.876;10.184;2022-08-24T12:17:37;1.95;;;1.75;;
7519;SDS011;3801;48.876;10.184;2022-08-24T12:22:42;3.10;;;1.80;;
7519;SDS011;3801;48.876;10.184;2022-08-24T12:27:47;2.15;;;2.05;;
7519;SDS011;3801;48.876;10.184;2022-08-24T12:32:52;2.95;;;2.00;;
7519;SDS011;3801;48.876;10.184;2022-08-24T12:37:58;3.10;;;1.85;;
7519;SDS011;3801;48.876;10.184;2022-08-24T12:43:05;2.25;;;1.70;;
7519;SDS011;3801;48.876;10.184;2022-08-24T12:48:13;2.00;;;1.70;;
7519;SDS011;3801;48.876;10.184;2022-08-24T12:53:22;2.42;;;1.80;;
7519;SDS011;3801;48.876;10.184;2022-08-24T12:58:38;2.47;;;1.88;;
7519;SDS011;3801;48.876;10.184;2022-08-24T13:04:07;2.92;;;1.73;;
7519;SDS011;3801;48.876;10.184;2022-08-24T13:09:14;4.32;;;1.90;;
7519;SDS011;3801;48.876;10.184;2022-08-24T13:14:20;1.58;;;1.48;;
7519;SDS011;3801;48.876;10.184;2022-08-24T13:19:33;2.00;;;1.80;;
7519;SDS011;3801;48.876;10.184;2022-08-24T13:24:41;2.28;;;2.00;;
7519;SDS011;3801;48.876;10.184;2022-08-24T13:29:47;2.20;;;2.00;;
7519;SDS011;3801;48.876;10.184;2022-08-24T13:34:52;2.33;;;1.77;;
7519;SDS011;3801;48.876;10.184;2022-08-24T13:40:03;2.60;;;1.95;;
7519;SDS011;3801;48.876;10.184;2022-08-24T13:45:17;2.65;;;1.80;;
7519;SDS011;3801;48.876;10.184;2022-08-24T13:50:29;3.10;;;1.60;;
7519;SDS011;3801;48.876;10.184;2022-08-24T13:55:35;3.45;;;1.77;;
7519;SDS011;3801;48.876;10.184;2022-08-24T14:00:44;2.05;;;1.80;;
7519;SDS011;3801;48.876;10.184;2022-08-24T14:05:49;1.80;;;1.70;;
7519;SDS011;3801;48.876;10.184;2022-08-24T14:11:01;2.35;;;1.70;;
7519;SDS011;3801;48.876;10.184;2022-08-24T14:16:10;1.77;;;1.67;;
7519;SDS011;3801;48.876;10.184;2022-08-24T14:21:45;3.10;;;2.15;;
7519;SDS011;3801;48.876;10.184;2022-08-24T14:27:04;2.00;;;1.80;;
7519;SDS011;3801;48.876;10.184;2022-08-24T14:37:41;3.25;;;2.00;;
7519;SDS011;3801;48.876;10.184;2022-08-24T14:42:51;2.00;;;1.77;;
7519;SDS011;3801;48.876;10.184;2022-08-24T14:47:58;2.10;;;1.80;;
7519;SDS011;3801;48.876;10.184;2022-08-24T14:53:14;3.22;;;1.90;;
7519;SDS011;3801;48.876;10.184;2022-08-24T14:58:26;2.20;;;1.67;;
7519;SDS011;3801;48.876;10.184;2022-08-24T15:03:35;3.33;;;1.92;;
7519;SDS011;3801;48.876;10.184;2022-08-24T15:08:45;2.17;;;1.95;;
7519;SDS011;3801;48.876;10.184;2022-08-24T15:13:49;2.50;;;2.00;;
7519;SDS011;3801;48.876;10.184;2022-08-24T15:18:56;2.20;;;1.73;;
7519;SDS011;3801;48.876;10.184;2022-08-24T15:24:10;2.58;;;2.25;;
7519;SDS011;3801;48.876;10.184;2022-08-24T15:29:17;2.10;;;1.90;;
7519;SDS011;3801;48.876;10.184;2022-08-24T15:34:31;2.83;;;1.90;;
7519;SDS011;3801;48.876;10.184;2022-08-24T15:39:35;2.60;;;2.13;;
7519;SDS011;3801;48.876;10.184;2022-08-24T15:44:40;2.30;;;1.90;;
7519;SDS011;3801;48.876;10.184;2022-08-24T15:49:45;2.60;;;2.00;;
7519;SDS011;3801;48.876;10.184;2022-08-24T15:54:56;2.95;;;2.17;;
7519;SDS011;3801;48.876;10.184;2022-08-24T16:00:05;2.00;;;1.80;;
7519;SDS011;3801;48.876;10.184;2022-08-24T16:05:11;3.05;;;2.00;;
7519;SDS011;3801;48.876;10.184;2022-08-24T16:10:16;2.60;;;1.90;;
7519;SDS011;3801;48.876;10.184;2022-08-24T16:15:29;2.60;;;1.90;;
7519;SDS011;3801;48.876;10.184;2022-08-24T16:20:33;1.83;;;1.70;;
7519;SDS011;3801;48.876;10.184;2022-08-24T16:25:38;3.00;;;1.75;;
7519;SDS011;3801;48.876;10.184;2022-08-24T16:30:47;3.00;;;1.85;;
7519;SDS011;3801;48.876;10.184;2022-08-24T16:35:51;2.65;;;1.52;;
7519;SDS011;3801;48.876;10.184;2022-08-24T16:40:57;2.22;;;2.00;;
7519;SDS011;3801;48.876;10.184;2022-08-24T16:46:00;2.80;;;2.13;;
7519;SDS011;3801;48.876;10.184;2022-08-24T16:51:05;2.30;;;2.08;;
7519;SDS011;3801;48.876;10.184;2022-08-24T16:56:09;2.55;;;1.90;;
7519;SDS011;3801;48.876;10.184;2022-08-24T17:01:17;2.35;;;2.15;;
7519;SDS011;3801;48.876;10.184;2022-08-24T17:06:21;5.75;;;2.85;;
7519;SDS011;3801;48.876;10.184;2022-08-24T17:11:26;2.28;;;2.00;;
7519;SDS011;3801;48.876;10.184;2022-08-24T17:16:29;2.55;;;2.15;;
7519;SDS011;3801;48.876;10.184;2022-08-24T17:21:32;2.47;;;2.15;;
7519;SDS011;3801;48.876;10.184;2022-08-24T17:26:37;5.03;;;3.10;;
7519;SDS011;3801;48.876;10.184;2022-08-24T17:31:49;4.15;;;2.95;;
7519;SDS011;3801;48.876;10.184;2022-08-24T17:36:53;3.28;;;2.30;;
7519;SDS011;3801;48.876;10.184;2022-08-24T17:41:58;3.90;;;2.25;;
7519;SDS011;3801;48.876;10.184;2022-08-24T17:47:03;2.65;;;2.30;;
7519;SDS011;3801;48.876;10.184;2022-08-24T17:52:07;5.82;;;2.30;;
7519;SDS011;3801;48.876;10.184;2022-08-24T17:57:12;3.03;;;2.40;;
7519;SDS011;3801;48.876;10.184;2022-08-24T18:02:15;2.90;;;2.25;;
7519;SDS011;3801;48.876;10.184;2022-08-24T18:07:19;2.65;;;2.30;;
7519;SDS011;3801;48.876;10.184;2022-08-24T18:12:44;6.50;;;2.30;;
7519;SDS011;3801;48.876;10.184;2022-08-24T18:17:48;3.20;;;2.40;;
7519;SDS011;3801;48.876;10.184;2022-08-24T18:22:52;2.55;;;2.28;;
7519;SDS011;3801;48.876;10.184;2022-08-24T18:27:58;2.20;;;1.98;;
7519;SDS011;3801;48.876;10.184;2022-08-24T18:33:03;3.70;;;2.47;;
7519;SDS011;3801;48.876;10.184;2022-08-24T18:38:06;3.75;;;2.20;;
7519;SDS011;3801;48.876;10.184;2022-08-24T18:43:11;6.90;;;2.30;;
7519;SDS011;3801;48.876;10.184;2022-08-24T18:48:17;3.03;;;2.10;;
7519;SDS011;3801;48.876;10.184;2022-08-24T18:53:21;3.40;;;2.78;;
7519;SDS011;3801;48.876;10.184;2022-08-24T18:58:27;6.65;;;3.00;;
7519;SDS011;3801;48.876;10.184;2022-08-24T19:03:31;2.83;;;2.58;;
7519;SDS011;3801;48.876;10.184;2022-08-24T19:08:35;3.97;;;2.40;;
7519;SDS011;3801;48.876;10.184;2022-08-24T19:13:40;4.17;;;2.63;;
7519;SDS011;3801;48.876;10.184;2022-08-24T19:18:43;3.73;;;2.93;;
7519;SDS011;3801;48.876;10.184;2022-08-24T19:23:50;5.13;;;3.20;;
7519;SDS011;3801;48.876;10.184;2022-08-24T19:28:56;4.83;;;3.13;;
7519;SDS011;3801;48.876;10.184;2022-08-24T19:34:00;3.97;;;3.27;;
7519;SDS011;3801;48.876;10.184;2022-08-24T19:39:04;3.63;;;3.00;;
7519;SDS011;3801;48.876;10.184;2022-08-24T19:44:10;4.00;;;3.23;;
7519;SDS011;3801;48.876;10.184;2022-08-24T19:49:31;4.93;;;2.93;;
7519;SDS011;3801;48.876;10.184;2022-08-24T19:54:36;3.47;;;2.97;;
7519;SDS011;3801;48.876;10.184;2022-08-24T19:59:41;3.77;;;3.10;;
7519;SDS011;3801;48.876;10.184;2022-08-24T20:04:45;5.93;;;3.50;;
7519;SDS011;3801;48.876;10.184;2022-08-24T20:09:48;4.33;;;3.30;;
7519;SDS011;3801;48.876;10.184;2022-08-24T20:14:53;4.23;;;3.20;;
7519;SDS011;3801;48.876;10.184;2022-08-24T20:19:57;3.43;;;3.13;;
7519;SDS011;3801;48.876;10.184;2022-08-24T20:25:01;4.33;;;3.00;;
7519;SDS011;3801;48.876;10.184;2022-08-24T20:30:07;4.23;;;3.57;;
7519;SDS011;3801;48.876;10.184;2022-08-24T20:35:10;4.90;;;3.20;;
7519;SDS011;3801;48.876;10.184;2022-08-24T20:40:15;5.60;;;3.10;;
7519;SDS011;3801;48.876;10.184;2022-08-24T20:45:21;5.13;;;3.30;;
7519;SDS011;3801;48.876;10.184;2022-08-24T20:50:24;4.53;;;3.73;;
7519;SDS011;3801;48.876;10.184;2022-08-24T20:55:30;4.23;;;3.50;;
7519;SDS011;3801;48.876;10.184;2022-08-24T21:00:35;4.07;;;3.67;;
7519;SDS011;3801;48.876;10.184;2022-08-24T21:05:38;4.27;;;3.47;;
7519;SDS011;3801;48.876;10.184;2022-08-24T21:10:42;4.77;;;3.80;;
7519;SDS011;3801;48.876;10.184;2022-08-24T21:15:47;3.90;;;3.50;;
7519;SDS011;3801;48.876;10.184;2022-08-24T21:20:50;5.07;;;3.30;;
7519;SDS011;3801;48.876;10.184;2022-08-24T21:26:06;3.90;;;3.37;;
7519;SDS011;3801;48.876;10.184;2022-08-24T21:31:12;5.53;;;4.03;;
7519;SDS011;3801;48.876;10.184;2022-08-24T21:36:15;8.33;;;3.70;;
7519;SDS011;3801;48.876;10.184;2022-08-24T21:41:19;6.67;;;4.20;;
7519;SDS011;3801;48.876;10.184;2022-08-24T21:46:25;4.90;;;3.90;;
7519;SDS011;3801;48.876;10.184;2022-08-24T21:51:31;4.33;;;3.57;;
7519;SDS011;3801;48.876;10.184;2022-08-24T21:56:35;5.37;;;4.27;;
7519;SDS011;3801;48.876;10.184;2022-08-24T22:01:40;6.30;;;4.13;;
7519;SDS011;3801;48.876;10.184;2022-08-24T22:06:44;6.83;;;4.80;;
7519;SDS011;3801;48.876;10.184;2022-08-24T22:11:47;5.70;;;4.57;;
7519;SDS011;3801;48.876;10.184;2022-08-24T22:16:53;6.30;;;4.43;;
7519;SDS011;3801;48.876;10.184;2022-08-24T22:21:57;9.17;;;5.60;;
7519;SDS011;3801;48.876;10.184;2022-08-24T22:27:00;7.37;;;4.67;;
7519;SDS011;3801;48.876;10.184;2022-08-24T22:32:05;6.57;;;5.20;;
7519;SDS011;3801;48.876;10.184;2022-08-24T22:37:10;7.27;;;4.70;;
7519;SDS011;3801;48.876;10.184;2022-08-24T22:42:13;7.10;;;5.00;;
7519;SDS011;3801;48.876;10.184;2022-08-24T22:47:18;7.00;;;5.07;;
7519;SDS011;3801;48.876;10.184;2022-08-24T22:52:21;6.53;;;4.47;;
7519;SDS011;3801;48.876;10.184;2022-08-24T22:57:25;7.37;;;4.63;;
7519;SDS011;3801;48.876;10.184;2022-08-24T23:02:32;6.90;;;4.73;;
7519;SDS011;3801;48.876;10.184;2022-08-24T23:07:35;8.60;;;5.80;;
7519;SDS011;3801;48.876;10.184;2022-08-24T23:12:39;8.50;;;5.87;;
7519;SDS011;3801;48.876;10.184;2022-08-24T23:17:44;9.33;;;6.03;;
7519;SDS011;3801;48.876;10.184;2022-08-24T23:22:47;5.90;;;4.97;;
7519;SDS011;3801;48.876;10.184;2022-08-24T23:27:51;11.03;;;5.17;;
7519;SDS011;3801;48.876;10.184;2022-08-24T23:32:56;7.43;;;5.50;;
7519;SDS011;3801;48.876;10.184;2022-08-24T23:37:59;6.37;;;5.30;;
7519;SDS011;3801;48.876;10.184;2022-08-24T23:43:03;8.37;;;5.50;;
7519;SDS011;3801;48.876;10.184;2022-08-24T23:48:08;8.23;;;5.43;;
7519;SDS011;3801;48.876;10.184;2022-08-24T23:53:11;7.83;;;5.37;;
7519;SDS011;3801;48.876;10.184;2022-08-24T23:58:15;7.63;;;5.27;;
